sensor_id;sensor_type;location;lat;lon;timestamp;temperature;humidity
1950;DHT22;975;48.760;9.152;2023-06-10T18:06:25;28.60;53.50
1950;DHT22;975;48.760;9.152;2023-06-10T18:09:13;28.60;54.00
1950;DHT22;975;48.760;9.152;2023-06-10T18:12:02;28.40;54.50
1950;DHT22;975;48.760;9.152;2023-06-10T18:14:55;28.30;54.80
1950;DHT22;975;48.760;9.152;2023-06-10T18:17:44;28.20;55.30
1950;DHT22;975;48.760;9.152;2023-06-10T18:20:32;28.00;55.40
1950;DHT22;975;48.760;9.152;2023-06-10T18:23:19;27.90;55.80
1950;DHT22;975;48.760;9.152;2023-06-10T18:26:07;27.70;55.90
1950;DHT22;975;48.760;9.152;2023-06-10T18:28:54;27.60;56.10
1950;DHT22;975;48.760;9.152;2023-06-10T18:31:42;27.50;56.40
1950;DHT22;975;48.760;9.152;2023-06-10T18:34:31;27.30;56.70
1950;DHT22;975;48.760;9.152;2023-06-10T18:37:19;27.10;56.90
1950;DHT22;975;48.760;9.152;2023-06-10T18:40:10;27.00;57.30
1950;DHT22;975;48.760;9.152;2023-06-10T18:42:57;26.90;58.10
1950;DHT22;975;48.760;9.152;2023-06-10T18:45:45;26.70;58.10
1950;DHT22;975;48.760;9.152;2023-06-10T18:48:35;26.60;58.50
1950;DHT22;975;48.760;9.152;2023-06-10T18:51:26;26.60;58.60
1950;DHT22;975;48.760;9.152;2023-06-10T18:54:20;26.60;58.10
1950;DHT22;975;48.760;9.152;2023-06-10T18:57:09;26.60;58.40
1950;DHT22;975;48.760;9.152;2023-06-10T18:59:57;26.50;58.30
1950;DHT22;975;48.760;9.152;2023-06-10T19:02:48;26.50;58.50
1950;DHT22;975;48.760;9.152;2023-06-10T19:05:35;26.50;58.70
1950;DHT22;975;48.760;9.152;2023-06-10T19:08:24;26.40;58.70
1950;DHT22;975;48.760;9.152;2023-06-10T19:11:12;26.40;59.10
1950;DHT22;975;48.760;9.152;2023-06-10T19:14:00;26.30;59.00
1950;DHT22;975;48.760;9.152;2023-06-10T19:16:50;26.30;58.90
1950;DHT22;975;48.760;9.152;2023-06-10T19:19:41;26.20;59.40
1950;DHT22;975;48.760;9.152;2023-06-10T19:22:28;26.20;59.70
1950;DHT22;975;48.760;9.152;2023-06-10T19:25:17;26.10;60.40
1950;DHT22;975;48.760;9.152;2023-06-10T19:28:09;26.10;60.80
1950;DHT22;975;48.760;9.152;2023-06-10T19:31:01;26.00;61.60
1950;DHT22;975;48.760;9.152;2023-06-10T19:33:49;25.90;62.00
1950;DHT22;975;48.760;9.152;2023-06-10T19:36:36;25.80;62.70
1950;DHT22;975;48.760;9.152;2023-06-10T19:39:24;25.70;63.60
1950;DHT22;975;48.760;9.152;2023-06-10T19:42:13;25.60;63.50
1950;DHT22;975;48.760;9.152;2023-06-10T19:45:01;25.50;64.20
1950;DHT22;975;48.760;9.152;2023-06-10T19:47:51;25.40;64.60
1950;DHT22;975;48.760;9.152;2023-06-10T19:50:39;25.30;65.40
1950;DHT22;975;48.760;9.152;2023-06-10T19:53:26;25.30;66.10
1950;DHT22;975;48.760;9.152;2023-06-10T19:56:14;25.10;66.20
1950;DHT22;975;48.760;9.152;2023-06-10T19:59:06;25.00;68.10
1950;DHT22;975;48.760;9.152;2023-06-10T20:01:54;24.90;68.20
1950;DHT22;975;48.760;9.152;2023-06-10T20:04:41;24.90;68.60
1950;DHT22;975;48.760;9.152;2023-06-10T20:07:29;24.80;68.80
1950;DHT22;975;48.760;9.152;2023-06-10T20:10:16;24.80;69.40
1950;DHT22;975;48.760;9.152;2023-06-10T20:13:05;24.60;69.00
1950;DHT22;975;48.760;9.152;2023-06-10T20:18:48;24.50;69.50
